Time;durP1;ratioP1;P1;durP2;ratioP2;P2;SDS_P1;SDS_P2;PMS_P1;PMS_P2;Temp;Humidity;BMP_temperature;BMP_pressure;BME280_temperature;BME280_humidity;BME280_pressure;Samples;Min_cycle;Max_cycle;Signal;HPM_P1;HPM_P2
2023/04/29 00:00:07;;;;;;;;;;;;;;;12.15;83.39;97571.19;5057885;28;20358;-64
2023/04/29 00:02:59;;;;;;;;;;;;;;;12.20;83.34;97579.16;5054568;28;19924;-63
2023/04/29 00:05:48;;;;;;;;;;;;;;;12.21;83.29;97573.38;5059626;28;19933;-64
2023/04/29 00:08:37;;;;;;;;;;;;;;;12.23;83.01;97578.50;5063567;28;19932;-62
2023/04/29 00:11:25;;;;;;;;;;;;;;;12.20;83.09;97566.34;5057005;28;19993;-64
2023/04/29 00:14:15;;;;;;;;;;;;;;;12.20;83.09;97558.19;5074204;28;20058;-65
2023/04/29 00:17:05;;;;;;;;;;;;;;;12.16;83.02;97572.78;5075786;28;19932;-64
2023/04/29 00:19:54;;;;;;;;;;;;;;;12.13;82.88;97567.97;5077283;28;19921;-65
2023/04/29 00:22:42;;;;;;;;;;;;;;;12.08;82.89;97571.69;5076638;28;19924;-62
2023/04/29 00:25:31;;;;;;;;;;;;;;;12.05;82.92;97575.09;5073325;28;20093;-64
2023/04/29 00:28:19;;;;;;;;;;;;;;;12.06;83.00;97573.94;5074172;28;20411;-65
2023/04/29 00:31:10;;;;;;;;;;;;;;;12.03;83.15;97575.38;5058062;28;20359;-64
2023/04/29 00:33:58;;;;;;;;;;;;;;;12.01;83.26;97574.94;5060653;28;19934;-61
2023/04/29 00:36:46;;;;;;;;;;;;;;;11.96;83.41;97572.41;5063574;28;19920;-67
2023/04/29 00:39:35;;;;;;;;;;;;;;;12.02;83.50;97579.25;5064565;28;20520;-64
2023/04/29 00:42:24;;;;;;;;;;;;;;;12.04;83.52;97576.22;5064362;28;20022;-67
2023/04/29 00:45:12;;;;;;;;;;;;;;;12.06;83.30;97580.19;5062570;28;19924;-65
2023/04/29 00:48:01;;;;;;;;;;;;;;;12.08;83.40;97577.13;5069698;28;21245;-65
2023/04/29 00:50:50;;;;;;;;;;;;;;;12.06;83.45;97572.03;5039947;28;19920;-63
2023/04/29 00:53:38;;;;;;;;;;;;;;;12.09;83.31;97572.47;5046593;28;19920;-64
2023/04/29 00:56:29;;;;;;;;;;;;;;;12.11;83.54;97575.69;5055703;28;19932;-67
2023/04/29 00:59:19;;;;;;;;;;;;;;;12.09;83.43;97569.75;5043409;28;19921;-63
2023/04/29 01:02:07;;;;;;;;;;;;;;;12.04;83.55;97570.78;5056183;28;19944;-66
2023/04/29 01:04:55;;;;;;;;;;;;;;;12.01;83.57;97561.31;5056320;28;19928;-63
2023/04/29 01:07:45;;;;;;;;;;;;;;;11.91;83.57;97572.56;5038766;28;20444;-64
2023/04/29 01:10:36;;;;;;;;;;;;;;;11.90;83.87;97576.44;5045499;28;19932;-65
2023/04/29 01:13:26;;;;;;;;;;;;;;;11.90;83.77;97575.63;5040528;28;20035;-64
2023/04/29 01:16:17;;;;;;;;;;;;;;;11.88;83.84;97569.69;5042047;28;19940;-63
2023/04/29 01:19:08;;;;;;;;;;;;;;;11.87;84.13;97577.06;5044938;28;19932;-68
2023/04/29 01:21:57;;;;;;;;;;;;;;;11.89;84.12;97579.50;5042318;28;19928;-64
2023/04/29 01:24:47;;;;;;;;;;;;;;;11.92;84.10;97574.16;5041353;28;19928;-69
2023/04/29 01:27:37;;;;;;;;;;;;;;;11.88;84.10;97570.53;5057860;28;20876;-67
2023/04/29 01:30:32;;;;;;;;;;;;;;;11.85;84.11;97570.38;5042842;28;20362;-63
2023/04/29 01:33:23;;;;;;;;;;;;;;;11.85;84.12;97571.16;5054861;28;19924;-66
2023/04/29 01:36:15;;;;;;;;;;;;;;;11.86;84.05;97567.31;5040291;28;20507;-62
2023/04/29 01:39:07;;;;;;;;;;;;;;;11.93;83.72;97572.25;5043402;28;20033;-64
2023/04/29 01:41:59;;;;;;;;;;;;;;;11.93;83.54;97562.19;5042097;28;19947;-64
2023/04/29 01:44:50;;;;;;;;;;;;;;;11.87;83.64;97571.63;5046738;28;19980;-66
2023/04/29 01:47:41;;;;;;;;;;;;;;;11.86;83.91;97577.41;5057421;28;19958;-63
2023/04/29 01:50:31;;;;;;;;;;;;;;;11.90;83.93;97575.63;5042502;28;19924;-69
2023/04/29 01:53:28;;;;;;;;;;;;;;;11.92;83.48;97574.16;5041332;28;19950;-65
2023/04/29 01:56:16;;;;;;;;;;;;;;;11.90;83.69;97571.00;5054428;28;19925;-66
2023/04/29 01:59:20;;;;;;;;;;;;;;;11.87;83.78;97577.06;5044231;28;19950;-64
2023/04/29 02:02:29;;;;;;;;;;;;;;;11.84;84.11;97583.19;5054919;28;20026;-63
2023/04/29 02:05:31;;;;;;;;;;;;;;;11.78;84.38;97584.47;5041524;28;19939;-66
2023/04/29 02:08:20;;;;;;;;;;;;;;;11.83;84.49;97576.16;5041452;28;19942;-64
2023/04/29 02:11:08;;;;;;;;;;;;;;;11.92;84.40;97574.16;5041730;28;20009;-64
2023/04/29 02:13:59;;;;;;;;;;;;;;;11.89;84.19;97583.00;5054097;28;19954;-63
2023/04/29 02:16:49;;;;;;;;;;;;;;;11.87;84.54;97581.72;5042661;28;19935;-66
2023/04/29 02:19:38;;;;;;;;;;;;;;;11.89;84.57;97574.06;5053262;28;19981;-67
2023/04/29 02:22:26;;;;;;;;;;;;;;;11.96;84.51;97577.84;5055582;28;19924;-66
2023/04/29 02:25:16;;;;;;;;;;;;;;;11.99;84.04;97579.91;5042362;28;19990;-64
2023/04/29 02:28:04;;;;;;;;;;;;;;;11.92;84.14;97579.63;5043468;28;19928;-64
2023/04/29 02:30:53;;;;;;;;;;;;;;;11.87;84.40;97571.63;5055260;28;19920;-64
2023/04/29 02:33:43;;;;;;;;;;;;;;;11.89;84.62;97579.50;5057977;28;19966;-64
2023/04/29 02:36:31;;;;;;;;;;;;;;;11.89;84.54;97579.50;5052916;28;19933;-64
2023/04/29 02:39:19;;;;;;;;;;;;;;;11.90;84.58;97575.63;5053257;28;19962;-65
2023/04/29 02:42:07;;;;;;;;;;;;;;;11.93;84.69;97570.34;5054847;28;19965;-63
2023/04/29 02:44:56;;;;;;;;;;;;;;;11.91;84.78;97575.31;5055895;28;19957;-65
2023/04/29 02:47:45;;;;;;;;;;;;;;;11.91;84.60;97580.75;5055310;28;20277;-63
2023/04/29 02:50:34;;;;;;;;;;;;;;;11.93;84.63;97583.97;5055011;28;20018;-66
2023/04/29 02:53:24;;;;;;;;;;;;;;;11.93;84.60;97583.97;5038503;28;20141;-63
2023/04/29 02:56:12;;;;;;;;;;;;;;;11.91;84.59;97578.03;5039586;28;19986;-68
2023/04/29 02:59:00;;;;;;;;;;;;;;;11.91;84.90;97578.03;5046973;28;19928;-65
2023/04/29 03:01:49;;;;;;;;;;;;;;;11.97;84.69;97582.16;5039827;28;20031;-65
2023/04/29 03:04:38;;;;;;;;;;;;;;;11.96;84.32;97577.03;5039956;28;20003;-63
2023/04/29 03:07:28;;;;;;;;;;;;;;;11.99;84.01;97587.28;5041554;28;19920;-65
2023/04/29 03:10:18;;;;;;;;;;;;;;;11.99;84.13;97581.84;5040004;28;20334;-68
2023/04/29 03:13:06;;;;;;;;;;;;;;;11.96;84.17;97580.56;5046455;28;20412;-65
2023/04/29 03:15:57;;;;;;;;;;;;;;;11.95;84.28;97578.97;5044615;28;20027;-64
2023/04/29 03:18:45;;;;;;;;;;;;;;;11.97;84.27;97582.16;5046822;28;19967;-63
2023/04/29 03:21:33;;;;;;;;;;;;;;;11.98;84.40;97585.66;5059377;28;19925;-67
2023/04/29 03:24:23;;;;;;;;;;;;;;;12.14;83.95;97581.25;5047674;28;19924;-63
2023/04/29 03:27:11;;;;;;;;;;;;;;;12.04;83.92;97585.19;5039679;28;19929;-67
2023/04/29 03:30:00;;;;;;;;;;;;;;;11.91;84.11;97560.91;5041115;28;20040;-64
2023/04/29 03:32:50;;;;;;;;;;;;;;;11.99;84.12;97579.91;5044452;28;20014;-65
2023/04/29 03:35:38;;;;;;;;;;;;;;;12.02;84.43;97579.25;5055507;28;19932;-64
2023/04/29 03:38:53;;;;;;;;;;;;;;;12.09;83.83;97573.31;5053343;28;19924;-64
2023/04/29 03:41:42;;;;;;;;;;;;;;;12.00;84.13;97584.22;5041844;28;20370;-65
2023/04/29 03:44:31;;;;;;;;;;;;;;;11.96;84.19;97586.00;5044270;28;19943;-66
2023/04/29 03:47:19;;;;;;;;;;;;;;;11.93;84.35;97581.22;5057529;28;19934;-68
2023/04/29 03:50:09;;;;;;;;;;;;;;;11.96;84.65;97588.72;5045001;28;20396;-66
2023/04/29 03:52:58;;;;;;;;;;;;;;;12.02;84.28;97587.41;5050991;28;20315;-64
2023/04/29 03:55:50;;;;;;;;;;;;;;;11.96;84.25;97591.44;5060431;28;19920;-62
2023/04/29 03:58:40;;;;;;;;;;;;;;;11.93;84.48;97592.13;5065422;28;20477;-64
2023/04/29 04:01:31;;;;;;;;;;;;;;;11.93;84.55;97592.13;5063204;28;20360;-65
2023/04/29 04:04:22;;;;;;;;;;;;;;;12.00;84.23;97591.59;5063201;28;20038;-64
2023/04/29 04:07:11;;;;;;;;;;;;;;;11.99;84.42;97595.47;5060912;28;19932;-64
2023/04/29 04:10:19;;;;;;;;;;;;;;;12.01;84.45;97596.72;5078356;28;20003;-69
2023/04/29 04:13:07;;;;;;;;;;;;;;;12.03;84.36;97608.06;5068999;28;19928;-66
2023/04/29 04:15:57;;;;;;;;;;;;;;;12.02;84.19;97606.47;5065532;28;20023;-63
2023/04/29 04:18:46;;;;;;;;;;;;;;;12.08;84.24;97609.81;5066631;28;20432;-68
2023/04/29 04:21:35;;;;;;;;;;;;;;;12.07;84.28;97619.91;5066255;28;19958;-65
2023/04/29 04:24:26;;;;;;;;;;;;;;;12.13;84.35;97617.00;5063231;28;20416;-66
2023/04/29 04:27:14;;;;;;;;;;;;;;;12.14;84.15;97621.31;5066662;28;19951;-66
2023/04/29 04:30:07;;;;;;;;;;;;;;;12.15;84.27;97625.66;5063044;28;19981;-68
2023/04/29 04:32:57;;;;;;;;;;;;;;;12.14;83.92;97633.00;5075205;28;19920;-67
2023/04/29 04:35:45;;;;;;;;;;;;;;;12.06;83.80;97634.66;5073444;28;20129;-65
2023/04/29 04:38:33;;;;;;;;;;;;;;;12.03;84.31;97635.28;5065232;28;19928;-66
2023/04/29 04:41:26;;;;;;;;;;;;;;;12.03;84.07;97635.28;5065260;28;20389;-65
2023/04/29 04:44:15;;;;;;;;;;;;;;;11.99;84.34;97633.56;5064470;28;19931;-66
2023/04/29 04:47:16;;;;;;;;;;;;;;;12.00;84.28;97635.97;5063264;28;19931;-66
2023/04/29 04:50:19;;;;;;;;;;;;;;;11.99;84.33;97642.53;5062342;28;19924;-68
2023/04/29 04:53:09;;;;;;;;;;;;;;;12.00;84.37;97640.63;5077050;28;20361;-65
2023/04/29 04:56:17;;;;;;;;;;;;;;;11.99;84.46;97647.19;5076893;28;20081;-64
2023/04/29 04:59:06;;;;;;;;;;;;;;;12.03;84.53;97648.91;5075934;28;20638;-66
2023/04/29 05:01:57;;;;;;;;;;;;;;;12.09;84.33;97640.56;5073166;28;19924;-65
2023/04/29 05:04:45;;;;;;;;;;;;;;;12.16;84.38;97646.31;5074718;28;20011;-67
2023/04/29 05:07:37;;;;;;;;;;;;;;;12.20;83.75;97645.31;5062977;28;20027;-66
2023/04/29 05:10:26;;;;;;;;;;;;;;;12.18;83.47;97641.31;5076507;28;20022;-66
2023/04/29 05:13:17;;;;;;;;;;;;;;;12.15;83.82;97647.44;5064008;28;19931;-65
2023/04/29 05:16:06;;;;;;;;;;;;;;;12.07;83.99;97649.84;5076337;28;20022;-64
2023/04/29 05:18:55;;;;;;;;;;;;;;;12.08;84.21;97647.94;5063686;28;19931;-65
2023/04/29 05:21:51;;;;;;;;;;;;;;;12.15;84.12;97647.44;5063366;28;19924;-67
2023/04/29 05:24:41;;;;;;;;;;;;;;;12.32;83.63;97652.78;5068243;28;19935;-64
2023/04/29 05:27:30;;;;;;;;;;;;;;;12.26;83.44;97632.31;5065731;28;19924;-63
2023/04/29 05:30:18;;;;;;;;;;;;;;;12.39;83.17;97650.34;5063054;28;20376;-65
2023/04/29 05:33:07;;;;;;;;;;;;;;;12.39;82.78;97655.78;5074710;28;20222;-68
2023/04/29 05:35:55;;;;;;;;;;;;;;;12.35;82.51;97662.22;5057880;28;20022;-70
2023/04/29 05:38:44;;;;;;;;;;;;;;;12.36;82.24;97669.25;5060082;28;20007;-68
2023/04/29 05:41:35;;;;;;;;;;;;;;;12.42;81.81;97667.97;5073922;28;20819;-67
2023/04/29 05:44:26;;;;;;;;;;;;;;;12.50;81.25;97676.06;5077522;28;20194;-66
2023/04/29 05:47:14;;;;;;;;;;;;;;;12.66;80.69;97667.31;5075175;28;20003;-67
2023/04/29 05:50:04;;;;;;;;;;;;;;;12.71;80.42;97675.31;5053530;28;19966;-66
2023/04/29 05:52:53;;;;;;;;;;;;;;;12.71;79.57;97675.31;5040706;28;20289;-68
2023/04/29 05:55:43;;;;;;;;;;;;;;;12.71;79.53;97680.75;5047520;28;20358;-65
2023/04/29 05:58:33;;;;;;;;;;;;;;;12.87;79.23;97689.97;5046138;28;19947;-63
2023/04/29 06:01:22;;;;;;;;;;;;;;;13.03;77.95;97684.72;5044322;28;19987;-63
2023/04/29 06:04:10;;;;;;;;;;;;;;;12.91;78.66;97690.91;5041505;28;19950;-65
2023/04/29 06:07:17;;;;;;;;;;;;;;;12.87;78.50;97695.41;5043356;28;19959;-65
2023/04/29 06:10:20;;;;;;;;;;;;;;;12.92;78.40;97694.41;5054141;28;19928;-62
2023/04/29 06:13:09;;;;;;;;;;;;;;;13.03;78.40;97699.16;5053412;28;19954;-67
2023/04/29 06:15:58;;;;;;;;;;;;;;;13.11;78.22;97690.13;5068072;28;19963;-64
2023/04/29 06:18:51;;;;;;;;;;;;;;;13.34;77.18;97703.44;5055780;28;19921;-64
2023/04/29 06:21:39;;;;;;;;;;;;;;;13.31;77.05;97698.63;5048976;28;19932;-63
2023/04/29 06:24:27;;;;;;;;;;;;;;;13.40;76.77;97707.53;5050508;28;19924;-66
2023/04/29 06:27:17;;;;;;;;;;;;;;;13.45;75.83;97710.06;5042482;28;20086;-63
2023/04/29 06:30:06;;;;;;;;;;;;;;;13.33;76.05;97712.75;5050883;28;19928;-64
2023/04/29 06:32:56;;;;;;;;;;;;;;;13.24;76.45;97709.28;5047360;28;19940;-68
2023/04/29 06:35:45;;;;;;;;;;;;;;;13.20;76.30;97721.97;5050818;28;20289;-65
2023/04/29 06:38:51;;;;;;;;;;;;;;;13.19;75.53;97728.56;5048767;28;20015;-63
2023/04/29 06:41:53;;;;;;;;;;;;;;;13.06;75.29;97731.22;5035696;28;19954;-65
2023/04/29 06:45:07;;;;;;;;;;;;;;;13.04;75.95;97730.72;5037118;28;20600;-65
2023/04/29 06:48:00;;;;;;;;;;;;;;;12.95;75.79;97735.47;5028377;28;19933;-68
2023/04/29 06:51:18;;;;;;;;;;;;;;;12.94;75.98;97733.06;5032234;28;19932;-63
2023/04/29 06:54:06;;;;;;;;;;;;;;;13.01;75.91;97733.34;5028797;28;20321;-67
2023/04/29 06:56:54;;;;;;;;;;;;;;;12.96;76.00;97734.34;5024273;28;19978;-66
2023/04/29 06:59:42;;;;;;;;;;;;;;;13.06;75.77;97733.94;5039426;28;19920;-65
2023/04/29 07:02:31;;;;;;;;;;;;;;;13.15;75.32;97730.34;5037253;28;19932;-64
2023/04/29 07:05:21;;;;;;;;;;;;;;;13.22;74.91;97738.84;5022689;28;19933;-66
2023/04/29 07:08:11;;;;;;;;;;;;;;;13.19;74.90;97744.91;5016651;28;20065;-65
2023/04/29 07:10:59;;;;;;;;;;;;;;;13.22;74.70;97749.75;5019596;28;19937;-68
2023/04/29 07:13:47;;;;;;;;;;;;;;;13.27;74.47;97749.56;5023218;28;20378;-65
2023/04/29 07:16:35;;;;;;;;;;;;;;;13.39;74.22;97757.81;5023055;28;20107;-64
2023/04/29 07:19:23;;;;;;;;;;;;;;;13.41;73.69;97752.78;5038697;28;20573;-64
2023/04/29 07:22:13;;;;;;;;;;;;;;;13.44;73.56;97746.69;5023246;28;20480;-64
2023/04/29 07:25:01;;;;;;;;;;;;;;;13.51;73.37;97754.31;5021349;28;19921;-66
2023/04/29 07:27:49;;;;;;;;;;;;;;;13.43;73.57;97753.28;5021656;28;19995;-64
2023/04/29 07:30:37;;;;;;;;;;;;;;;13.42;73.71;97765.31;5018594;28;19925;-64
2023/04/29 07:33:26;;;;;;;;;;;;;;;13.38;73.41;97758.94;5032408;28;20971;-63
2023/04/29 07:36:14;;;;;;;;;;;;;;;13.33;73.73;97767.31;5019956;28;19983;-65
2023/04/29 07:39:04;;;;;;;;;;;;;;;13.26;74.03;97767.03;5022504;28;20829;-65
2023/04/29 07:41:52;;;;;;;;;;;;;;;13.22;74.05;97768.84;5023372;28;19933;-66
2023/04/29 07:44:41;;;;;;;;;;;;;;;13.20;74.53;97771.84;5037332;28;19960;-64
2023/04/29 07:47:29;;;;;;;;;;;;;;;13.19;74.67;97772.19;5028779;28;20062;-62
2023/04/29 07:50:17;;;;;;;;;;;;;;;13.24;74.41;97772.03;5043941;28;21789;-63
2023/04/29 07:53:06;;;;;;;;;;;;;;;13.30;74.09;97773.44;5045442;28;19940;-63
2023/04/29 07:55:55;;;;;;;;;;;;;;;13.31;74.07;97772.28;5044780;28;19921;-65
2023/04/29 07:58:45;;;;;;;;;;;;;;;13.26;73.97;97775.22;5058852;28;20361;-63
2023/04/29 08:01:33;;;;;;;;;;;;;;;13.31;73.90;97772.28;5059357;28;20013;-63
2023/04/29 08:04:23;;;;;;;;;;;;;;;13.34;73.67;97782.56;5061169;28;19929;-65
2023/04/29 08:07:20;;;;;;;;;;;;;;;13.40;73.47;97789.41;5059369;28;19933;-65
2023/04/29 08:10:09;;;;;;;;;;;;;;;13.46;73.38;97788.06;5054993;28;19948;-64
2023/04/29 08:13:00;;;;;;;;;;;;;;;13.70;72.43;97792.88;5044142;28;20533;-65
2023/04/29 08:15:48;;;;;;;;;;;;;;;13.83;72.60;97790.97;5045092;28;19928;-68
2023/04/29 08:18:37;;;;;;;;;;;;;;;13.99;71.48;97794.69;5046541;28;19927;-66
2023/04/29 08:21:26;;;;;;;;;;;;;;;14.22;71.14;97797.03;5058700;28;19925;-65
2023/04/29 08:24:14;;;;;;;;;;;;;;;14.41;69.87;97800.84;5050781;28;20011;-64
2023/04/29 08:27:03;;;;;;;;;;;;;;;14.43;69.78;97792.28;5061624;28;20500;-66
2023/04/29 08:29:53;;;;;;;;;;;;;;;14.32;69.52;97802.06;5044866;28;19985;-65
2023/04/29 08:32:41;;;;;;;;;;;;;;;14.05;70.42;97807.00;5054235;28;19929;-68
2023/04/29 08:35:30;;;;;;;;;;;;;;;13.96;70.91;97800.84;5053817;28;20382;-66
2023/04/29 08:38:18;;;;;;;;;;;;;;;13.86;71.55;97806.72;5057343;28;20021;-65
2023/04/29 08:41:07;;;;;;;;;;;;;;;13.83;70.88;97826.47;5055894;28;19920;-66
2023/04/29 08:43:55;;;;;;;;;;;;;;;13.83;71.03;97826.47;5057855;28;20214;-66
2023/04/29 08:46:45;;;;;;;;;;;;;;;13.81;70.77;97828.75;5058529;28;20105;-63
2023/04/29 08:49:33;;;;;;;;;;;;;;;13.75;70.67;97839.09;5043287;28;19924;-63
2023/04/29 08:52:21;;;;;;;;;;;;;;;13.71;70.85;97831.88;5046768;28;19940;-66
2023/04/29 08:55:10;;;;;;;;;;;;;;;13.75;70.93;97832.81;5060012;28;19939;-67
2023/04/29 08:57:58;;;;;;;;;;;;;;;13.75;70.66;97846.47;5061010;28;20070;-64
2023/04/29 09:00:46;;;;;;;;;;;;;;;13.63;70.85;97836.25;5056037;28;19959;-63
2023/04/29 09:03:37;;;;;;;;;;;;;;;13.68;70.74;97840.72;5044064;28;19925;-65
2023/04/29 09:06:25;;;;;;;;;;;;;;;13.68;69.97;97822.41;5057684;28;19924;-66
2023/04/29 09:09:14;;;;;;;;;;;;;;;13.83;70.02;97842.88;5059616;28;20332;-67
2023/04/29 09:12:02;;;;;;;;;;;;;;;13.92;69.46;97840.88;5058171;28;19927;-67
2023/04/29 09:14:50;;;;;;;;;;;;;;;14.01;69.17;97846.22;5058902;28;19935;-64
2023/04/29 09:17:39;;;;;;;;;;;;;;;14.11;69.08;97845.81;5054478;28;20362;-67
2023/04/29 09:20:30;;;;;;;;;;;;;;;14.25;68.53;97840.88;5058352;28;19951;-65
2023/04/29 09:23:18;;;;;;;;;;;;;;;14.19;68.40;97846.88;5057008;28;19974;-63
2023/04/29 09:26:06;;;;;;;;;;;;;;;14.15;68.62;97846.75;5055872;28;19921;-68
2023/04/29 09:29:05;;;;;;;;;;;;;;;14.30;68.33;97848.88;5058807;28;20001;-63
2023/04/29 09:31:56;;;;;;;;;;;;;;;14.29;67.71;97843.75;5058603;28;19932;-67
2023/04/29 09:34:44;;;;;;;;;;;;;;;14.19;67.18;97847.69;5059631;28;19920;-68
2023/04/29 09:37:35;;;;;;;;;;;;;;;14.13;67.33;97849.84;5045126;28;20466;-67
2023/04/29 09:40:30;;;;;;;;;;;;;;;14.14;67.38;97826.84;5053068;28;19929;-68
2023/04/29 09:43:18;;;;;;;;;;;;;;;14.25;67.96;97849.06;5046190;28;20266;-68
2023/04/29 09:46:07;;;;;;;;;;;;;;;14.19;67.96;97846.88;5043644;28;19932;-68
2023/04/29 09:48:56;;;;;;;;;;;;;;;14.22;68.42;97844.28;5060340;28;20047;-68
2023/04/29 09:51:51;;;;;;;;;;;;;;;14.37;67.63;97851.03;5058409;28;19963;-67
2023/04/29 09:54:42;;;;;;;;;;;;;;;14.58;66.90;97853.75;5050063;28;19970;-68
2023/04/29 09:57:39;;;;;;;;;;;;;;;14.74;65.58;97853.88;5076644;28;20855;-67
2023/04/29 10:00:31;;;;;;;;;;;;;;;14.53;65.83;97840.28;5078059;28;20010;-68
2023/04/29 10:03:19;;;;;;;;;;;;;;;14.53;64.51;97853.97;5062217;28;20077;-67
2023/04/29 10:06:08;;;;;;;;;;;;;;;14.75;63.92;97860.94;5075498;28;19939;-68
2023/04/29 10:08:56;;;;;;;;;;;;;;;15.03;62.63;97859.16;5077851;28;20023;-68
2023/04/29 10:11:45;;;;;;;;;;;;;;;15.26;61.21;97866.91;5061754;28;19939;-69
2023/04/29 10:14:36;;;;;;;;;;;;;;;15.55;58.02;97852.16;5082316;28;19947;-68
2023/04/29 10:17:24;;;;;;;;;;;;;;;15.77;56.59;97864.59;5061107;28;23350;-68
2023/04/29 10:20:14;;;;;;;;;;;;;;;15.91;56.84;97854.03;5076993;28;20040;-68
2023/04/29 10:23:02;;;;;;;;;;;;;;;16.07;55.12;97857.63;5058791;28;20002;-68
2023/04/29 10:25:50;;;;;;;;;;;;;;;16.13;55.55;97864.47;5078708;28;19919;-68
2023/04/29 10:28:40;;;;;;;;;;;;;;;16.19;54.36;97873.22;5078704;28;20573;-70
2023/04/29 10:31:28;;;;;;;;;;;;;;;16.04;54.90;97863.81;5077599;28;19972;-67
2023/04/29 10:34:17;;;;;;;;;;;;;;;16.13;54.77;97864.47;5074665;28;23870;-67
2023/04/29 10:37:05;;;;;;;;;;;;;;;16.09;55.31;97865.53;5073225;28;19927;-69
2023/04/29 10:39:56;;;;;;;;;;;;;;;16.12;55.08;97873.03;5078940;28;20388;-68
2023/04/29 10:42:45;;;;;;;;;;;;;;;16.03;55.14;97867.69;5077271;28;20023;-68
2023/04/29 10:45:35;;;;;;;;;;;;;;;15.88;54.09;97865.72;5073642;28;19939;-69
2023/04/29 10:48:24;;;;;;;;;;;;;;;15.82;54.46;97861.59;5076005;28;19924;-69
2023/04/29 10:51:13;;;;;;;;;;;;;;;15.84;54.94;97864.81;5075881;28;19974;-68
2023/04/29 10:54:02;;;;;;;;;;;;;;;15.91;54.70;97860.31;5074804;28;20004;-70
2023/04/29 10:56:53;;;;;;;;;;;;;;;16.04;54.39;97861.09;5058418;28;20197;-68
2023/04/29 10:59:47;;;;;;;;;;;;;;;16.07;54.01;97863.13;5062323;28;19963;-68
2023/04/29 11:02:37;;;;;;;;;;;;;;;16.11;54.14;97857.75;5071241;28;20030;-68
2023/04/29 11:05:30;;;;;;;;;;;;;;;16.24;53.38;97860.09;5076059;28;19943;-69
2023/04/29 11:08:22;;;;;;;;;;;;;;;16.30;53.33;97865.28;5076638;28;19933;-67
2023/04/29 11:11:13;;;;;;;;;;;;;;;16.20;53.16;97867.41;5076202;28;19967;-68
2023/04/29 11:14:02;;;;;;;;;;;;;;;16.08;54.14;97864.69;5078731;28;19959;-69
2023/04/29 11:16:54;;;;;;;;;;;;;;;15.93;54.48;97873.69;5073233;28;20064;-67
2023/04/29 11:19:45;;;;;;;;;;;;;;;15.64;54.86;97867.34;5074174;28;19924;-68
2023/04/29 11:22:33;;;;;;;;;;;;;;;15.36;56.07;97869.19;5071737;28;19925;-70
2023/04/29 11:25:22;;;;;;;;;;;;;;;15.22;57.23;97872.25;5076345;28;19930;-70
2023/04/29 11:28:10;;;;;;;;;;;;;;;15.34;57.11;97880.50;5073310;28;19920;-68
2023/04/29 11:30:58;;;;;;;;;;;;;;;15.47;57.10;97881.28;5072439;28;19964;-68
2023/04/29 11:33:47;;;;;;;;;;;;;;;15.65;56.45;97879.88;5075385;28;19924;-68
2023/04/29 11:36:36;;;;;;;;;;;;;;;15.71;55.21;97878.53;5073130;28;20041;-68
2023/04/29 11:39:24;;;;;;;;;;;;;;;15.73;55.62;97891.09;5074612;28;19958;-69
2023/04/29 11:42:13;;;;;;;;;;;;;;;15.69;54.86;97885.47;5075279;28;19927;-68
2023/04/29 11:45:01;;;;;;;;;;;;;;;15.66;55.29;97886.19;5073736;28;19931;-72
2023/04/29 11:47:50;;;;;;;;;;;;;;;15.68;55.00;97901.13;5072334;28;19920;-72
2023/04/29 11:50:41;;;;;;;;;;;;;;;15.69;55.46;97897.25;5072654;28;20014;-68
2023/04/29 11:53:31;;;;;;;;;;;;;;;15.70;54.83;97898.81;5078383;28;19939;-67
2023/04/29 11:56:21;;;;;;;;;;;;;;;15.59;54.54;97886.72;5072958;28;19971;-67
2023/04/29 11:59:10;;;;;;;;;;;;;;;15.63;54.98;97904.09;5075445;28;20011;-68
2023/04/29 12:01:59;;;;;;;;;;;;;;;15.45;55.64;97903.53;5076255;28;20403;-68
2023/04/29 12:04:48;;;;;;;;;;;;;;;15.30;55.83;97900.69;5072236;28;20559;-68
2023/04/29 12:07:36;;;;;;;;;;;;;;;15.13;56.84;97910.72;5060359;28;20339;-70
2023/04/29 12:10:26;;;;;;;;;;;;;;;15.14;56.95;97903.28;5060825;28;19940;-68
2023/04/29 12:13:14;;;;;;;;;;;;;;;15.21;56.43;97911.72;5075212;28;20039;-68
2023/04/29 12:16:03;;;;;;;;;;;;;;;15.22;56.03;97905.09;5062662;28;19924;-68
2023/04/29 12:18:52;;;;;;;;;;;;;;;15.17;56.13;97900.66;5075890;28;19940;-68
2023/04/29 12:21:48;;;;;;;;;;;;;;;15.26;55.87;97905.22;5073761;28;20365;-69
2023/04/29 12:24:37;;;;;;;;;;;;;;;15.21;55.26;97903.50;5074453;28;19928;-70
2023/04/29 12:27:26;;;;;;;;;;;;;;;15.23;54.74;97911.38;5077182;28;20430;-71
2023/04/29 12:30:14;;;;;;;;;;;;;;;15.17;55.14;97921.75;5066890;28;20229;-69
2023/04/29 12:33:03;;;;;;;;;;;;;;;15.08;55.09;97921.88;5078093;28;19958;-67
2023/04/29 12:35:51;;;;;;;;;;;;;;;15.06;55.46;97918.66;5080218;28;20009;-66
2023/04/29 12:38:40;;;;;;;;;;;;;;;15.05;55.22;97928.00;5064976;28;19969;-67
2023/04/29 12:41:38;;;;;;;;;;;;;;;14.96;55.77;97929.25;5062780;28;20023;-68
2023/04/29 12:44:34;;;;;;;;;;;;;;;14.91;56.30;97928.34;5073430;28;19934;-68
2023/04/29 12:47:22;;;;;;;;;;;;;;;14.89;56.60;97927.88;5074882;28;19953;-66
2023/04/29 12:50:11;;;;;;;;;;;;;;;14.96;56.19;97926.50;5073327;28;19927;-68
2023/04/29 12:52:59;;;;;;;;;;;;;;;14.97;56.35;97928.94;5061800;28;19955;-69
2023/04/29 12:55:47;;;;;;;;;;;;;;;14.91;56.38;97935.72;5080794;28;19936;-71
2023/04/29 12:58:35;;;;;;;;;;;;;;;14.97;54.88;97933.56;5077048;28;19978;-68
2023/04/29 13:01:25;;;;;;;;;;;;;;;14.77;55.42;97907.91;5078151;28;20426;-67
2023/04/29 13:04:13;;;;;;;;;;;;;;;14.83;55.08;97929.22;5078089;28;19939;-67
2023/04/29 13:07:03;;;;;;;;;;;;;;;14.78;54.37;97923.97;5074756;28;19924;-69
2023/04/29 13:09:51;;;;;;;;;;;;;;;14.61;55.18;97914.03;5063686;28;19927;-70
2023/04/29 13:12:39;;;;;;;;;;;;;;;14.68;55.07;97919.72;5076608;28;20606;-71
2023/04/29 13:15:28;;;;;;;;;;;;;;;14.79;55.06;97925.56;5072968;28;19928;-67
2023/04/29 13:18:17;;;;;;;;;;;;;;;14.76;55.36;97930.94;5071835;28;19967;-67
2023/04/29 13:21:06;;;;;;;;;;;;;;;14.79;55.52;97928.31;5073662;28;19927;-67
2023/04/29 13:23:55;;;;;;;;;;;;;;;14.94;54.92;97924.13;5075134;28;19955;-67
2023/04/29 13:26:43;;;;;;;;;;;;;;;14.84;55.30;97930.81;5064649;28;20377;-67
2023/04/29 13:29:31;;;;;;;;;;;;;;;15.04;54.22;97926.41;5062998;28;19924;-69
2023/04/29 13:32:22;;;;;;;;;;;;;;;15.07;54.43;97923.00;5075598;28;20582;-67
2023/04/29 13:35:16;;;;;;;;;;;;;;;15.22;53.31;97916.06;5076504;28;19991;-69
2023/04/29 13:38:08;;;;;;;;;;;;;;;15.33;52.17;97922.66;5059268;28;19939;-71
2023/04/29 13:40:56;;;;;;;;;;;;;;;15.41;52.01;97918.22;5077788;28;20131;-69
2023/04/29 13:43:45;;;;;;;;;;;;;;;15.43;52.19;97926.91;5076020;28;19970;-65
2023/04/29 13:46:36;;;;;;;;;;;;;;;15.42;51.67;97925.31;5076896;28;20424;-66
2023/04/29 13:49:26;;;;;;;;;;;;;;;15.45;51.62;97930.09;5054705;28;20153;-65
2023/04/29 13:52:18;;;;;;;;;;;;;;;15.35;51.34;97933.28;5049504;28;19933;-66
2023/04/29 13:55:27;;;;;;;;;;;;;;;15.34;51.62;97926.19;5037121;28;19964;-69
2023/04/29 13:58:35;;;;;;;;;;;;;;;15.26;51.36;97927.91;5057062;28;20264;-68
2023/04/29 14:01:26;;;;;;;;;;;;;;;15.34;51.54;97923.47;5044846;28;19932;-71
2023/04/29 14:04:18;;;;;;;;;;;;;;;15.32;52.02;97925.75;5053445;28;20285;-68
2023/04/29 14:07:07;;;;;;;;;;;;;;;15.39;52.30;97934.19;5054536;28;19920;-67
2023/04/29 14:09:56;;;;;;;;;;;;;;;15.35;52.02;97928.63;5055109;28;20302;-69
2023/04/29 14:12:44;;;;;;;;;;;;;;;15.28;51.95;97930.31;5049560;28;19920;-68
2023/04/29 14:15:32;;;;;;;;;;;;;;;15.25;51.75;97931.00;5055337;28;20551;-69
2023/04/29 14:18:21;;;;;;;;;;;;;;;15.23;52.46;97930.53;5057899;28;19936;-69
2023/04/29 14:21:10;;;;;;;;;;;;;;;15.25;52.18;97936.47;5058352;28;19925;-68
2023/04/29 14:23:58;;;;;;;;;;;;;;;15.12;52.43;97932.91;5052622;28;19928;-70
2023/04/29 14:26:48;;;;;;;;;;;;;;;15.07;52.97;97941.34;5055911;28;19932;-66
2023/04/29 14:29:37;;;;;;;;;;;;;;;14.94;53.48;97938.59;5055331;28;19921;-69
2023/04/29 14:32:25;;;;;;;;;;;;;;;14.98;53.54;97946.94;5042859;28;20020;-68
2023/04/29 14:35:13;;;;;;;;;;;;;;;14.96;53.69;97945.66;5054548;28;19968;-68
2023/04/29 14:38:05;;;;;;;;;;;;;;;14.88;53.34;97944.63;5060998;28;19957;-68
2023/04/29 14:40:53;;;;;;;;;;;;;;;14.77;53.77;97954.41;5056994;28;19939;-69
2023/04/29 14:43:43;;;;;;;;;;;;;;;14.74;53.99;97960.53;5044798;28;20026;-68
2023/04/29 14:46:31;;;;;;;;;;;;;;;14.64;54.48;97968.00;5053131;28;19939;-67